Hope, MN

8:19 PM CDT on July 28, 2015 (GMT -0500)
Lemond Township, Steele County Rd 4 | | Change Station
CLOSE
Current Station
Personal Weather Station
Location: Ellendale, MN
Elevation: 1176 ft
Nearby Weather Stations

Elev 1176 ft 43.97 °N, 93.37 °W | Updated 7 seconds ago

Overcast
Overcast
76.6 °F
Feels Like 77 °F
N
5.0
Wind Variable Wind from WSW
Gusts 7.0 mph

Today
High -- | Low -- °F
--% Chance of Precip.
Yesterday
High -- | Low -- °F
Precip. -- in
5:57 AM 8:42 PM
Waxing Gibbous, 92% visible
Pressure 29.88 in
Visibility 10.0 miles
Clouds Mostly Cloudy 6500 ft
Heat Index 77 °F
Dew Point 74 °F
Humidity 91%
Rainfall 1.09 in
Snow Depth Not available.
UV 0 out of 12
Pollen 1.00 out of 12
Air Quality Not available.
Flu Activity Not available.
METAR KOWA 290115Z AUTO 25006KT 10SM BKN065 25/22 A2988 RMK AO2

More Conditions Fewer Conditions

Pressure 29.88 in
Visibility 10.0 miles
Clouds Mostly Cloudy 6500 ft
Heat Index 77 °F
Dew Point 74 °F
Humidity 91%
Rainfall 1.09 in
Snow Depth Not available.
UV 0 out of 12
Pollen 1.00 out of 12
Air Quality Not available.
Flu Activity Not available.
METAR KOWA 290115Z AUTO 25006KT 10SM BKN065 25/22 A2988 RMK AO2

More Conditions Fewer Conditions

10-Day Weather Forecast

×

Almanac

Astronomy

Jul. 28, 2015 Rise Set
Actual Time
Civil Twilight
Nautical Twilight
Astronomical Twilight
Moon
Length of Visible Light
Length of Day
Tomorrow will be .
, % of the Moon is Illuminated

Today's Extremes

State Highs State Lows

Community

WunderPhotos

Upload Photos

1,841,994 photos uploaded!

WunderBlogs® & News

Nearby

Air Quality

  Air Quality AQ Index Pollutant
Not available.

Snow Depth

Station Depth Elevation

Earthquake Activity

City Distance Mag. Time & Date
Minimum magnitude displayed is 2.5.

Coastal Water Temperatures

Place Temperature

Stations

Nearby Weather Stations

Station Location Temp. Windchill Dew Point Humidity Wind Precip. Elev Updated Type